LPPD/PDL METAR and TAF weather

Enter ICAO airport designator
Station Type Date Time Source
LPPD METAR 2020/05/26 05:30 UTC NOAA

LPPD 260530Z 10011KT 070V130 9999 FEW025 18/16 Q1023


Station Type Date Time Source
LPPD Decoded METAR 2020/05/26 05:30 UTC NOAA

Ponta Delgada / Nordela Acores , Portugal (LPPD) 37-44N 025-42W 72M
May 26, 2020 - 01:30 AM EDT / 2020.05.26 0530 UTC
Wind: from the E (100 degrees) at 13 MPH (11 KT) (direction variable):0
Visibility: greater than 7 mile(s):0
Sky conditions: mostly clear
Temperature: 64 F (18 C)
Dew Point: 60 F (16 C)
Relative Humidity: 88%
Pressure (altimeter): 30.21 in. Hg (1023 hPa)
ob: LPPD 260530Z 10011KT 070V130 9999 FEW025 18/16 Q1023
cycle: 5

Station Type Date Time Source
LPPD TAF 2020/05/26 06:18 UTC NOAA

TAF LPPD 260500Z 2606/2706 10010KT 9999 SCT025

Example: see airport list